createdAt,value
2022-09-25T00:01:34.780Z,1.00
2022-09-25T00:04:03.673Z,1.10
2022-09-25T00:06:33.025Z,1.30
2022-09-25T00:09:02.986Z,1.08
2022-09-25T00:11:33.978Z,1.35
2022-09-25T00:14:03.688Z,1.10
2022-09-25T00:16:33.826Z,1.08
2022-09-25T00:19:19.776Z,1.15
2022-09-25T00:21:53.196Z,1.10
2022-09-25T00:24:22.265Z,1.25
2022-09-25T00:26:50.607Z,1.20
2022-09-25T00:29:21.609Z,1.25
2022-09-25T00:31:50.050Z,1.00
2022-09-25T00:34:18.321Z,1.30
2022-09-25T00:36:46.878Z,1.10
2022-09-25T00:39:15.272Z,1.20
2022-09-25T00:41:43.535Z,1.35
2022-09-25T00:44:57.629Z,1.27
2022-09-25T00:47:44.491Z,1.25
2022-09-25T00:50:24.284Z,1.25
2022-09-25T00:52:54.576Z,1.15
2022-09-25T00:55:24.488Z,1.15
2022-09-25T00:57:55.609Z,1.00
2022-09-25T01:02:56.247Z,1.15
2022-09-25T01:07:59.615Z,1.20
2022-09-25T01:10:28.829Z,1.23
2022-09-25T01:12:59.310Z,1.20
2022-09-25T01:15:38.192Z,1.42
2022-09-25T01:18:19.105Z,1.23
2022-09-25T01:21:17.367Z,1.40
2022-09-25T01:24:24.815Z,1.30
2022-09-25T01:27:30.636Z,1.30
2022-09-25T01:30:07.362Z,1.27
2022-09-25T01:32:45.617Z,1.00
2022-09-25T01:35:22.840Z,1.20
2022-09-25T01:37:56.360Z,1.23
2022-09-25T01:40:29.267Z,1.30
2022-09-25T01:43:04.151Z,1.20
2022-09-25T01:45:42.908Z,1.27
2022-09-25T01:48:13.468Z,1.20
2022-09-25T01:50:48.549Z,1.13
2022-09-25T01:53:24.713Z,1.15
2022-09-25T01:55:58.181Z,1.20
2022-09-25T01:58:31.867Z,1.10
2022-09-25T02:01:07.385Z,1.27
2022-09-25T02:03:40.138Z,1.20
2022-09-25T02:06:11.122Z,1.20
2022-09-25T02:08:44.273Z,1.27
2022-09-25T02:11:14.332Z,1.42
2022-09-25T02:13:49.589Z,1.40
2022-09-25T02:16:24.204Z,1.30
2022-09-25T02:19:10.396Z,1.10
2022-09-25T02:21:47.024Z,1.13
2022-09-25T02:24:22.932Z,1.25
2022-09-25T02:26:52.467Z,1.15
2022-09-25T02:29:22.013Z,1.13
2022-09-25T02:31:56.087Z,1.20
2022-09-25T02:34:25.071Z,1.33
2022-09-25T02:36:53.732Z,1.10
2022-09-25T02:39:27.436Z,1.20
2022-09-25T02:42:18.216Z,1.05
2022-09-25T02:45:08.123Z,1.08
2022-09-25T02:47:46.135Z,1.20
2022-09-25T02:50:23.399Z,1.20
2022-09-25T02:53:01.463Z,1.10
2022-09-25T02:55:38.070Z,1.10
2022-09-25T02:58:12.813Z,1.20
2022-09-25T03:00:43.622Z,1.20
2022-09-25T03:03:17.845Z,1.63
2022-09-25T03:05:48.116Z,1.00
2022-09-25T03:08:34.680Z,1.10
2022-09-25T03:11:03.966Z,1.40
2022-09-25T03:13:34.192Z,1.20
2022-09-25T03:16:06.630Z,1.20
2022-09-25T03:18:36.838Z,1.00
2022-09-25T03:21:05.721Z,0.85
2022-09-25T03:23:34.138Z,1.38
2022-09-25T03:26:04.589Z,1.40
2022-09-25T03:28:33.919Z,1.30
2022-09-25T03:31:05.048Z,1.20
2022-09-25T03:36:09.657Z,1.10
2022-09-25T03:38:38.311Z,1.13
2022-09-25T03:41:08.891Z,1.30
2022-09-25T03:43:37.616Z,1.15
2022-09-25T03:46:06.636Z,1.25
2022-09-25T03:48:37.046Z,1.35
2022-09-25T03:51:06.934Z,1.40
2022-09-25T03:53:36.110Z,1.00
2022-09-25T03:56:08.389Z,1.23
2022-09-25T03:58:37.091Z,1.00
2022-09-25T04:01:06.105Z,0.90
2022-09-25T04:03:35.978Z,1.00
2022-09-25T04:06:06.668Z,1.20
2022-09-25T04:08:37.392Z,1.23
2022-09-25T04:11:06.184Z,1.08
2022-09-25T04:13:37.359Z,1.00
2022-09-25T04:18:38.115Z,1.30
2022-09-25T04:21:08.780Z,0.85
2022-09-25T04:23:38.015Z,1.23
2022-09-25T04:26:07.276Z,1.10
2022-09-25T04:28:35.878Z,1.27
2022-09-25T04:31:04.759Z,1.10
2022-09-25T04:33:52.777Z,1.10
2022-09-25T04:36:22.401Z,1.10
2022-09-25T04:38:51.087Z,1.05
2022-09-25T04:41:20.337Z,1.30
2022-09-25T04:43:48.942Z,1.00
2022-09-25T04:46:22.433Z,1.23
2022-09-25T04:48:51.729Z,1.10
2022-09-25T04:51:22.028Z,1.10
2022-09-25T04:53:50.272Z,1.00
2022-09-25T04:56:18.554Z,1.17
2022-09-25T04:58:48.630Z,1.30
2022-09-25T05:01:19.609Z,1.10
2022-09-25T05:06:17.593Z,1.40
2022-09-25T05:08:49.655Z,1.20
2022-09-25T05:11:18.014Z,1.17
2022-09-25T05:13:46.654Z,0.90
2022-09-25T05:16:15.187Z,1.45
2022-09-25T05:18:43.495Z,1.40
2022-09-25T05:21:11.749Z,1.20
2022-09-25T05:23:40.038Z,1.38
2022-09-25T05:26:11.155Z,1.30
2022-09-25T05:28:39.671Z,1.40
2022-09-25T05:31:08.404Z,1.40
2022-09-25T05:33:37.257Z,1.30
2022-09-25T05:36:07.965Z,1.33
2022-09-25T05:38:38.077Z,1.35
2022-09-25T05:41:09.991Z,1.30
2022-09-25T05:43:41.553Z,1.17
2022-09-25T05:46:10.944Z,1.45
2022-09-25T05:48:39.931Z,1.52
2022-09-25T05:51:08.553Z,1.25
2022-09-25T05:53:37.113Z,1.30
2022-09-25T05:56:06.380Z,1.60
2022-09-25T05:58:36.639Z,1.10
2022-09-25T06:01:07.428Z,1.30
2022-09-25T06:03:36.195Z,1.23
2022-09-25T06:06:05.062Z,1.35
2022-09-25T06:08:35.706Z,4.32
2022-09-25T06:11:06.015Z,2.25
2022-09-25T06:13:37.081Z,1.97
2022-09-25T06:16:06.710Z,1.55
2022-09-25T06:18:35.016Z,1.42
2022-09-25T06:21:05.986Z,1.40
2022-09-25T06:23:34.461Z,1.27
2022-09-25T06:26:04.133Z,1.45
2022-09-25T06:28:32.735Z,1.45
2022-09-25T06:31:03.826Z,1.67
2022-09-25T06:33:32.790Z,1.65
2022-09-25T06:36:01.435Z,1.60
2022-09-25T06:38:30.104Z,1.98
2022-09-25T06:41:00.875Z,1.50
2022-09-25T06:43:30.140Z,1.80
2022-09-25T06:46:03.699Z,2.00
2022-09-25T06:48:32.604Z,2.20
2022-09-25T06:51:02.573Z,3.80
2022-09-25T06:53:31.110Z,4.90
2022-09-25T06:56:00.868Z,4.20
2022-09-25T06:58:31.366Z,2.15
2022-09-25T07:00:59.891Z,1.48
2022-09-25T07:03:49.089Z,1.60
2022-09-25T07:06:21.053Z,2.00
2022-09-25T07:08:51.262Z,1.70
2022-09-25T07:11:22.193Z,1.40
2022-09-25T07:13:52.290Z,1.92
2022-09-25T07:16:21.588Z,1.90
2022-09-25T07:18:53.817Z,1.85
2022-09-25T07:21:25.029Z,1.90
2022-09-25T07:23:54.132Z,2.10
2022-09-25T07:26:25.322Z,1.90
2022-09-25T07:28:56.957Z,2.08
2022-09-25T07:31:27.790Z,1.92
2022-09-25T07:33:58.745Z,2.08
2022-09-25T07:36:27.117Z,1.80
2022-09-25T07:38:55.694Z,2.30
2022-09-25T07:41:24.574Z,2.00
2022-09-25T07:44:40.178Z,2.20
2022-09-25T07:46:46.319Z,1.98
2022-09-25T07:49:16.215Z,1.92
2022-09-25T07:51:44.609Z,2.22
2022-09-25T07:54:13.003Z,2.33
2022-09-25T07:56:41.328Z,2.20
2022-09-25T07:59:09.698Z,2.35
2022-09-25T08:01:42.806Z,2.08
2022-09-25T08:04:13.177Z,1.80
2022-09-25T08:06:42.973Z,1.92
2022-09-25T08:09:12.793Z,1.70
2022-09-25T08:11:41.275Z,1.98
2022-09-25T08:14:09.741Z,1.90
2022-09-25T08:16:38.077Z,1.77
2022-09-25T08:19:06.344Z,1.95
2022-09-25T08:21:36.656Z,1.92
2022-09-25T08:24:06.805Z,1.60
2022-09-25T08:26:35.097Z,1.77
2022-09-25T08:29:03.876Z,1.60
2022-09-25T08:31:32.355Z,1.73
2022-09-25T08:34:21.099Z,1.08
2022-09-25T08:36:50.229Z,1.10
2022-09-25T08:39:19.847Z,1.48
2022-09-25T08:41:52.717Z,2.00
2022-09-25T08:44:27.740Z,1.40
2022-09-25T08:47:19.687Z,1.17
2022-09-25T08:50:07.362Z,0.95
2022-09-25T08:52:36.730Z,1.05
2022-09-25T08:55:15.110Z,1.20
2022-09-25T08:57:45.280Z,1.25
2022-09-25T09:00:21.189Z,1.33
2022-09-25T09:02:57.026Z,1.10
2022-09-25T09:05:30.327Z,0.85
2022-09-25T09:08:02.202Z,1.33
2022-09-25T09:10:38.805Z,1.23
2022-09-25T09:13:16.492Z,1.13
2022-09-25T09:15:51.079Z,0.95
2022-09-25T09:18:25.238Z,1.00
2022-09-25T09:20:56.060Z,1.00
2022-09-25T09:23:26.401Z,0.90
2022-09-25T09:26:03.366Z,0.98
2022-09-25T09:29:03.948Z,0.95
2022-09-25T09:31:41.704Z,1.98
2022-09-25T09:35:04.362Z,0.98
2022-09-25T09:37:40.228Z,0.90
2022-09-25T09:40:36.558Z,0.60
2022-09-25T09:43:16.786Z,0.88
2022-09-25T09:45:53.142Z,0.60
2022-09-25T09:48:29.808Z,1.92
2022-09-25T09:51:06.461Z,0.77
2022-09-25T09:53:40.981Z,0.82
2022-09-25T09:56:15.024Z,0.88
2022-09-25T09:58:51.401Z,0.90
2022-09-25T10:01:41.739Z,0.73
2022-09-25T10:04:14.828Z,0.68
2022-09-25T10:06:48.589Z,1.13
2022-09-25T10:09:18.561Z,0.82
2022-09-25T10:11:52.281Z,0.80
2022-09-25T10:14:23.357Z,0.60
2022-09-25T10:19:24.974Z,0.55
2022-09-25T10:22:00.153Z,0.50
2022-09-25T10:24:52.523Z,0.40
2022-09-25T10:27:29.746Z,0.65
2022-09-25T10:30:18.793Z,0.70
2022-09-25T10:33:01.056Z,0.70
2022-09-25T10:35:42.507Z,0.80
2022-09-25T10:38:30.140Z,0.93
2022-09-25T10:41:04.215Z,0.80
2022-09-25T10:43:32.884Z,0.80
2022-09-25T10:46:15.285Z,0.65
2022-09-25T10:49:01.857Z,0.80
2022-09-25T10:51:32.471Z,0.50
2022-09-25T10:54:14.355Z,0.57
2022-09-25T10:56:44.152Z,7.20
2022-09-25T10:59:20.713Z,0.55
2022-09-25T11:01:54.186Z,0.68
2022-09-25T11:04:26.106Z,0.47
2022-09-25T11:07:01.910Z,0.65
2022-09-25T11:09:32.565Z,0.70
2022-09-25T11:12:13.241Z,0.50
2022-09-25T11:14:55.331Z,0.55
2022-09-25T11:17:38.462Z,0.68
2022-09-25T11:20:27.767Z,0.40
2022-09-25T11:23:14.765Z,0.52
2022-09-25T11:25:49.798Z,0.30
2022-09-25T11:28:28.041Z,0.35
2022-09-25T11:31:07.035Z,0.35
2022-09-25T11:33:44.673Z,0.22
2022-09-25T11:36:18.717Z,0.20
2022-09-25T11:39:07.667Z,0.35
2022-09-25T11:41:42.494Z,0.30
2022-09-25T11:44:23.619Z,0.30
2022-09-25T11:47:02.398Z,0.22
2022-09-25T11:49:34.540Z,0.20
2022-09-25T11:52:43.237Z,0.57
2022-09-25T11:55:43.310Z,0.45
2022-09-25T11:58:50.446Z,0.30
2022-09-25T12:01:30.983Z,0.20
2022-09-25T12:04:27.591Z,0.40
2022-09-25T12:07:09.812Z,0.60
2022-09-25T12:10:04.101Z,0.40
2022-09-25T12:12:42.735Z,0.22
2022-09-25T12:15:23.936Z,0.35
2022-09-25T12:18:01.664Z,0.20
2022-09-25T12:20:39.372Z,0.20
2022-09-25T12:23:22.544Z,0.17
2022-09-25T12:26:07.589Z,0.40
2022-09-25T12:28:53.105Z,0.45
2022-09-25T12:31:32.658Z,0.52
2022-09-25T12:34:16.157Z,0.63
2022-09-25T12:36:52.082Z,0.30
2022-09-25T12:39:37.286Z,0.38
2022-09-25T12:42:17.652Z,0.40
2022-09-25T12:44:53.110Z,0.20
2022-09-25T12:47:33.204Z,0.43
2022-09-25T12:50:09.361Z,0.55
2022-09-25T12:52:43.187Z,1.25
2022-09-25T12:55:20.788Z,0.47
2022-09-25T12:57:55.931Z,0.32
2022-09-25T13:00:28.456Z,0.38
2022-09-25T13:03:05.343Z,0.30
2022-09-25T13:05:40.241Z,0.32
2022-09-25T13:08:17.269Z,0.30
2022-09-25T13:10:54.121Z,0.38
2022-09-25T13:13:26.318Z,0.50
2022-09-25T13:15:59.175Z,0.30
2022-09-25T13:18:30.526Z,0.40
2022-09-25T13:21:00.950Z,0.30
2022-09-25T13:23:36.748Z,0.38
2022-09-25T13:26:14.497Z,0.20
2022-09-25T13:28:52.294Z,0.20
2022-09-25T13:31:27.231Z,0.40
2022-09-25T13:34:04.258Z,0.30
2022-09-25T13:36:39.140Z,0.20
2022-09-25T13:39:44.583Z,0.30
2022-09-25T13:42:24.688Z,0.45
2022-09-25T13:45:06.390Z,0.40
2022-09-25T13:48:07.543Z,0.50
2022-09-25T13:50:47.156Z,0.40
2022-09-25T13:53:26.658Z,0.40
2022-09-25T13:56:23.185Z,0.70
2022-09-25T13:59:38.385Z,0.30
2022-09-25T14:02:39.346Z,0.50
2022-09-25T14:05:08.409Z,0.43
2022-09-25T14:07:37.072Z,0.32
2022-09-25T14:10:12.571Z,0.30
2022-09-25T14:12:45.458Z,0.40
2022-09-25T14:15:30.414Z,0.65
2022-09-25T14:18:01.016Z,0.20
2022-09-25T14:20:37.343Z,0.50
2022-09-25T14:23:14.005Z,0.40
2022-09-25T14:25:45.152Z,0.30
2022-09-25T14:28:26.287Z,0.50
2022-09-25T14:34:07.995Z,0.90
2022-09-25T14:36:49.299Z,0.40
2022-09-25T14:39:37.095Z,0.50
2022-09-25T14:42:52.188Z,0.60
2022-09-25T14:45:51.014Z,0.50
2022-09-25T14:48:27.088Z,0.40
2022-09-25T14:50:59.491Z,0.47
2022-09-25T14:53:32.654Z,0.50
2022-09-25T14:56:02.999Z,0.32
2022-09-25T14:58:34.189Z,0.68
2022-09-25T15:01:14.219Z,0.40
2022-09-25T15:03:48.917Z,0.30
2022-09-25T15:06:27.359Z,0.52
2022-09-25T15:08:55.737Z,1.25
2022-09-25T15:11:29.718Z,0.82
2022-09-25T15:14:11.791Z,0.35
2022-09-25T15:16:58.052Z,0.20
2022-09-25T15:19:33.157Z,0.20
2022-09-25T15:22:02.424Z,0.50
2022-09-25T15:24:37.026Z,0.40
2022-09-25T15:27:07.800Z,0.20
2022-09-25T15:29:38.946Z,0.40
2022-09-25T15:32:07.619Z,0.50
2022-09-25T15:34:37.518Z,0.20
2022-09-25T15:37:21.024Z,0.55
2022-09-25T15:39:49.515Z,0.28
2022-09-25T15:42:17.858Z,0.50
2022-09-25T15:44:46.623Z,0.50
2022-09-25T15:47:49.562Z,0.50
2022-09-25T15:50:25.577Z,0.40
2022-09-25T15:52:57.898Z,0.30
2022-09-25T15:55:26.846Z,0.40
2022-09-25T15:57:57.093Z,0.57
2022-09-25T16:00:49.233Z,0.35
2022-09-25T16:03:39.352Z,0.40
2022-09-25T16:06:15.079Z,0.28
2022-09-25T16:08:45.779Z,0.40
2022-09-25T16:11:21.719Z,0.50
2022-09-25T16:13:59.376Z,0.40
2022-09-25T16:16:30.315Z,0.50
2022-09-25T16:21:33.807Z,0.40
2022-09-25T16:24:07.467Z,0.30
2022-09-25T16:26:42.185Z,0.50
2022-09-25T16:29:22.806Z,0.30
2022-09-25T16:31:54.030Z,0.28
2022-09-25T16:34:27.501Z,0.40
2022-09-25T16:37:00.095Z,0.43
2022-09-25T16:39:34.910Z,0.50
2022-09-25T16:42:31.370Z,0.40
2022-09-25T16:45:16.107Z,0.40
2022-09-25T16:47:49.237Z,3.10
2022-09-25T16:50:18.698Z,1.40
2022-09-25T16:52:49.061Z,0.73
2022-09-25T16:55:22.777Z,0.50
2022-09-25T16:57:53.031Z,0.60
2022-09-25T17:00:25.285Z,0.55
2022-09-25T17:02:54.494Z,0.60
2022-09-25T17:05:27.499Z,0.50
2022-09-25T17:07:59.997Z,0.70
2022-09-25T17:10:32.194Z,0.60
2022-09-25T17:13:02.744Z,0.50
2022-09-25T17:15:35.295Z,0.90
2022-09-25T17:18:07.951Z,0.68
2022-09-25T17:20:36.567Z,0.68
2022-09-25T17:23:06.811Z,0.70
2022-09-25T17:25:45.731Z,0.60
2022-09-25T17:28:14.448Z,0.40
2022-09-25T17:30:44.393Z,0.50
2022-09-25T17:33:17.262Z,0.50
2022-09-25T17:35:49.678Z,0.50
2022-09-25T17:38:19.933Z,1.42
2022-09-25T17:40:52.332Z,0.80
2022-09-25T17:43:21.559Z,0.70
2022-09-25T17:45:54.165Z,0.70
2022-09-25T17:48:25.165Z,0.57
2022-09-25T17:50:55.907Z,0.60
2022-09-25T17:53:31.299Z,0.60
2022-09-25T17:56:01.324Z,0.80
2022-09-25T17:58:32.259Z,0.73
2022-09-25T18:01:03.592Z,0.75
2022-09-25T18:03:31.846Z,0.63
2022-09-25T18:06:00.385Z,0.57
2022-09-25T18:08:31.124Z,0.57
2022-09-25T18:10:59.808Z,0.60
2022-09-25T18:13:28.169Z,0.70
2022-09-25T18:16:00.152Z,0.68
2022-09-25T18:18:49.639Z,0.77
2022-09-25T18:21:35.893Z,0.75
2022-09-25T18:24:05.813Z,0.63
2022-09-25T18:26:34.187Z,0.60
2022-09-25T18:29:02.751Z,1.05
2022-09-25T18:31:31.769Z,0.80
2022-09-25T18:34:00.210Z,0.77
2022-09-25T18:36:28.480Z,0.60
2022-09-25T18:38:56.739Z,0.90
2022-09-25T18:41:27.651Z,0.90
2022-09-25T18:43:56.132Z,0.82
2022-09-25T18:46:24.747Z,1.10
2022-09-25T18:48:56.022Z,1.75
2022-09-25T18:51:24.310Z,2.55
2022-09-25T18:53:54.231Z,1.85
2022-09-25T18:56:22.561Z,1.00
2022-09-25T18:58:52.185Z,0.90
2022-09-25T19:01:20.657Z,1.00
2022-09-25T19:03:51.976Z,1.02
2022-09-25T19:06:21.326Z,0.90
2022-09-25T19:08:54.115Z,0.82
2022-09-25T19:11:23.658Z,0.90
2022-09-25T19:13:53.240Z,0.95
2022-09-25T19:16:22.664Z,1.02
2022-09-25T19:18:51.255Z,1.17
2022-09-25T19:21:22.537Z,0.90
2022-09-25T19:23:51.529Z,1.48
2022-09-25T19:26:25.800Z,3.83
2022-09-25T19:28:55.934Z,6.13
2022-09-25T19:31:26.695Z,2.65
2022-09-25T19:33:55.984Z,1.23
2022-09-25T19:36:26.938Z,1.10
2022-09-25T19:38:55.917Z,0.90
2022-09-25T19:41:28.210Z,1.17
2022-09-25T19:44:01.657Z,1.20
2022-09-25T19:46:32.072Z,1.40
2022-09-25T19:49:01.029Z,1.17
2022-09-25T19:51:29.677Z,1.30
2022-09-25T19:53:57.993Z,1.08
2022-09-25T19:56:26.514Z,1.40
2022-09-25T19:58:56.923Z,1.23
2022-09-25T20:01:28.222Z,1.52
2022-09-25T20:03:57.135Z,1.20
2022-09-25T20:06:27.094Z,5.75
2022-09-25T20:08:58.711Z,2.05
2022-09-25T20:11:27.412Z,1.98
2022-09-25T20:13:57.534Z,1.30
2022-09-25T20:16:29.226Z,1.30
2022-09-25T20:19:00.746Z,1.50
2022-09-25T20:21:31.638Z,1.40
2022-09-25T20:24:02.932Z,1.38
2022-09-25T20:26:32.810Z,1.33
2022-09-25T20:29:06.134Z,1.48
2022-09-25T20:31:37.296Z,1.30
2022-09-25T20:34:05.614Z,1.30
2022-09-25T20:36:36.223Z,2.03
2022-09-25T20:39:05.177Z,1.95
2022-09-25T20:41:34.281Z,1.88
2022-09-25T20:44:05.199Z,1.60
2022-09-25T20:46:34.564Z,1.40
2022-09-25T20:49:03.667Z,1.55
2022-09-25T20:51:35.382Z,1.15
2022-09-25T20:54:06.795Z,1.30
2022-09-25T20:56:37.081Z,1.50
2022-09-25T20:59:07.451Z,11.67
2022-09-25T21:01:37.630Z,6.30
2022-09-25T21:04:08.581Z,2.50
2022-09-25T21:06:40.255Z,1.75
2022-09-25T21:09:21.745Z,1.65
2022-09-25T21:11:51.031Z,1.40
2022-09-25T21:14:24.651Z,1.20
2022-09-25T21:16:53.839Z,1.70
2022-09-25T21:19:23.287Z,2.13
2022-09-25T21:21:52.002Z,3.17
2022-09-25T21:24:22.831Z,2.55
2022-09-25T21:26:51.497Z,3.38
2022-09-25T21:29:21.578Z,2.63
2022-09-25T21:31:50.991Z,1.77
2022-09-25T21:34:20.304Z,2.25
2022-09-25T21:36:49.366Z,2.30
2022-09-25T21:39:19.898Z,2.42
2022-09-25T21:41:49.811Z,2.22
2022-09-25T21:44:24.213Z,2.38
2022-09-25T21:46:52.741Z,2.20
2022-09-25T21:49:22.352Z,2.05
2022-09-25T21:51:51.164Z,2.00
2022-09-25T21:54:20.722Z,2.13
2022-09-25T21:56:49.412Z,2.00
2022-09-25T21:59:18.055Z,2.10
2022-09-25T22:01:47.901Z,2.03
2022-09-25T22:04:16.942Z,1.80
2022-09-25T22:06:47.595Z,2.05
2022-09-25T22:09:19.133Z,1.88
2022-09-25T22:11:49.092Z,1.42
2022-09-25T22:14:18.217Z,1.80
2022-09-25T22:16:49.921Z,1.60
2022-09-25T22:19:23.975Z,1.92
2022-09-25T22:21:55.041Z,1.95
2022-09-25T22:26:53.354Z,1.60
2022-09-25T22:29:23.041Z,1.52
2022-09-25T22:31:53.246Z,1.80
2022-09-25T22:34:24.017Z,1.57
2022-09-25T22:36:58.731Z,1.90
2022-09-25T22:39:28.779Z,1.60
2022-09-25T22:41:57.825Z,1.77
2022-09-25T22:44:26.297Z,1.60
2022-09-25T22:46:56.208Z,1.60
2022-09-25T22:49:24.514Z,1.73
2022-09-25T22:51:52.752Z,1.70
2022-09-25T22:54:21.219Z,1.45
2022-09-25T22:56:49.450Z,1.70
2022-09-25T22:59:18.921Z,1.92
2022-09-25T23:01:49.744Z,1.65
2022-09-25T23:04:23.613Z,1.60
2022-09-25T23:06:52.900Z,1.80
2022-09-25T23:09:24.988Z,1.88
2022-09-25T23:11:54.245Z,1.65
2022-09-25T23:14:25.106Z,2.00
2022-09-25T23:16:55.398Z,1.90
2022-09-25T23:19:25.787Z,1.90
2022-09-25T23:21:55.237Z,1.75
2022-09-25T23:24:24.277Z,2.10
2022-09-25T23:26:52.768Z,2.05
2022-09-25T23:29:23.051Z,1.80
2022-09-25T23:31:52.458Z,1.80
2022-09-25T23:34:21.248Z,1.83
2022-09-25T23:36:50.897Z,1.80
2022-09-25T23:39:21.292Z,2.05
2022-09-25T23:41:49.741Z,1.45
2022-09-25T23:44:18.013Z,2.42
2022-09-25T23:46:46.525Z,2.05
2022-09-25T23:49:15.261Z,2.13
2022-09-25T23:51:43.570Z,2.10
2022-09-25T23:54:13.300Z,1.80
2022-09-25T23:56:42.071Z,2.10
2022-09-25T23:59:13.416Z,1.65
